sensor_id;sensor_type;location;lat;lon;timestamp;pressure;altitude;pressure_sealevel;temperature;humidity
57000;BME280;42891;50.006;21.964;2023-10-08T00:01:23;51014.72;;;-146.02;77.81
57000;BME280;42891;50.006;21.964;2023-10-08T00:05:23;51004.69;;;-146.02;78.03
57000;BME280;42891;50.006;21.964;2023-10-08T00:09:24;50996.69;;;-146.02;78.32
57000;BME280;42891;50.006;21.964;2023-10-08T00:13:24;51008.69;;;-146.02;77.13
57000;BME280;42891;50.006;21.964;2023-10-08T00:17:25;51016.72;;;-146.02;77.15
57000;BME280;42891;50.006;21.964;2023-10-08T00:21:25;51014.72;;;-146.02;77.36
57000;BME280;42891;50.006;21.964;2023-10-08T00:25:26;51036.75;;;-146.02;77.71
57000;BME280;42891;50.006;21.964;2023-10-08T00:29:27;51022.72;;;-146.02;77.77
57000;BME280;42891;50.006;21.964;2023-10-08T00:33:31;51024.72;;;-146.02;78.19
57000;BME280;42891;50.006;21.964;2023-10-08T00:37:32;50998.69;;;-146.02;77.87
57000;BME280;42891;50.006;21.964;2023-10-08T00:41:34;51010.72;;;-146.02;77.63
57000;BME280;42891;50.006;21.964;2023-10-08T00:45:34;51024.72;;;-146.02;77.87
57000;BME280;42891;50.006;21.964;2023-10-08T00:49:35;51010.72;;;-146.02;78.29
57000;BME280;42891;50.006;21.964;2023-10-08T00:53:42;51038.75;;;-146.02;78.27
57000;BME280;42891;50.006;21.964;2023-10-08T00:57:43;51028.75;;;-146.02;77.98
57000;BME280;42891;50.006;21.964;2023-10-08T01:01:50;51044.78;;;-146.02;78.57
57000;BME280;42891;50.006;21.964;2023-10-08T01:06:13;50990.66;;;-146.02;78.66
57000;BME280;42891;50.006;21.964;2023-10-08T01:10:15;51010.72;;;-146.02;78.60
57000;BME280;42891;50.006;21.964;2023-10-08T01:14:20;51000.69;;;-146.02;78.41
57000;BME280;42891;50.006;21.964;2023-10-08T01:18:24;51022.72;;;-146.02;78.42
57000;BME280;42891;50.006;21.964;2023-10-08T01:22:32;51002.69;;;-146.02;78.87
57000;BME280;42891;50.006;21.964;2023-10-08T01:26:34;51016.72;;;-146.02;79.02
57000;BME280;42891;50.006;21.964;2023-10-08T01:30:38;51028.75;;;-146.02;78.63
57000;BME280;42891;50.006;21.964;2023-10-08T01:34:42;51050.78;;;-146.02;78.65
57000;BME280;42891;50.006;21.964;2023-10-08T01:38:45;50998.69;;;-146.02;78.82
57000;BME280;42891;50.006;21.964;2023-10-08T01:42:52;51034.75;;;-146.02;79.29
57000;BME280;42891;50.006;21.964;2023-10-08T01:46:53;51004.69;;;-146.02;79.34
57000;BME280;42891;50.006;21.964;2023-10-08T01:50:59;51056.78;;;-146.02;79.57
57000;BME280;42891;50.006;21.964;2023-10-08T01:55:04;51026.72;;;-146.02;79.82
57000;BME280;42891;50.006;21.964;2023-10-08T01:59:05;50988.66;;;-146.02;79.96
57000;BME280;42891;50.006;21.964;2023-10-08T02:03:06;51022.72;;;-146.02;79.60
57000;BME280;42891;50.006;21.964;2023-10-08T02:07:08;51014.72;;;-146.02;79.89
57000;BME280;42891;50.006;21.964;2023-10-08T02:11:12;51000.69;;;-146.02;79.83
57000;BME280;42891;50.006;21.964;2023-10-08T02:15:15;51044.78;;;-146.02;79.94
57000;BME280;42891;50.006;21.964;2023-10-08T02:19:16;51024.72;;;-146.02;79.77
57000;BME280;42891;50.006;21.964;2023-10-08T02:23:26;51026.72;;;-146.02;79.88
57000;BME280;42891;50.006;21.964;2023-10-08T02:27:28;51032.75;;;-146.02;79.51
57000;BME280;42891;50.006;21.964;2023-10-08T02:31:28;51006.69;;;-146.02;79.04
57000;BME280;42891;50.006;21.964;2023-10-08T02:35:28;51020.72;;;-146.02;79.52
57000;BME280;42891;50.006;21.964;2023-10-08T02:39:29;51028.75;;;-146.02;80.11
57000;BME280;42891;50.006;21.964;2023-10-08T02:43:33;51020.72;;;-146.02;79.58
57000;BME280;42891;50.006;21.964;2023-10-08T02:47:36;51030.75;;;-146.02;80.16
57000;BME280;42891;50.006;21.964;2023-10-08T02:51:39;51028.75;;;-146.02;79.93
57000;BME280;42891;50.006;21.964;2023-10-08T02:55:41;51026.72;;;-146.02;79.89
57000;BME280;42891;50.006;21.964;2023-10-08T02:59:44;51010.72;;;-146.02;79.85
57000;BME280;42891;50.006;21.964;2023-10-08T03:03:45;51056.78;;;-146.02;80.39
57000;BME280;42891;50.006;21.964;2023-10-08T03:07:47;51058.78;;;-146.02;79.91
57000;BME280;42891;50.006;21.964;2023-10-08T03:11:51;51050.78;;;-146.02;79.43
57000;BME280;42891;50.006;21.964;2023-10-08T03:15:53;51056.78;;;-146.02;79.68
57000;BME280;42891;50.006;21.964;2023-10-08T03:19:59;51056.78;;;-146.02;79.38
57000;BME280;42891;50.006;21.964;2023-10-08T03:24:22;51038.75;;;-146.02;80.03
57000;BME280;42891;50.006;21.964;2023-10-08T03:28:35;51028.75;;;-146.02;79.30
57000;BME280;42891;50.006;21.964;2023-10-08T03:32:35;51010.72;;;-146.02;79.20
57000;BME280;42891;50.006;21.964;2023-10-08T03:36:36;51064.81;;;-146.02;79.76
57000;BME280;42891;50.006;21.964;2023-10-08T03:40:46;51076.81;;;-146.02;79.44
57000;BME280;42891;50.006;21.964;2023-10-08T03:44:52;51034.75;;;-146.02;80.09
57000;BME280;42891;50.006;21.964;2023-10-08T03:48:54;51050.78;;;-146.02;80.44
57000;BME280;42891;50.006;21.964;2023-10-08T03:52:57;51060.78;;;-146.02;80.49
57000;BME280;42891;50.006;21.964;2023-10-08T03:56:58;51044.78;;;-146.02;79.61
57000;BME280;42891;50.006;21.964;2023-10-08T04:00:58;51044.78;;;-146.02;79.92
57000;BME280;42891;50.006;21.964;2023-10-08T04:05:18;51072.81;;;-146.02;79.60
57000;BME280;42891;50.006;21.964;2023-10-08T04:09:19;51070.81;;;-146.02;78.78
57000;BME280;42891;50.006;21.964;2023-10-08T04:13:26;51064.81;;;-146.02;78.51
57000;BME280;42891;50.006;21.964;2023-10-08T04:17:26;51068.81;;;-146.02;78.71
57000;BME280;42891;50.006;21.964;2023-10-08T04:21:26;51076.81;;;-146.02;77.57
57000;BME280;42891;50.006;21.964;2023-10-08T04:25:31;51058.78;;;-146.02;77.78
57000;BME280;42891;50.006;21.964;2023-10-08T04:29:32;51052.78;;;-146.02;78.27
57000;BME280;42891;50.006;21.964;2023-10-08T04:33:32;51048.78;;;-146.02;78.99
57000;BME280;42891;50.006;21.964;2023-10-08T04:37:34;51032.75;;;-146.02;79.00
57000;BME280;42891;50.006;21.964;2023-10-08T04:41:34;51052.78;;;-146.02;78.59
57000;BME280;42891;50.006;21.964;2023-10-08T04:45:39;51056.78;;;-146.02;78.38
57000;BME280;42891;50.006;21.964;2023-10-08T04:49:40;51066.81;;;-146.02;78.55
57000;BME280;42891;50.006;21.964;2023-10-08T04:53:45;51030.75;;;-146.02;78.59
57000;BME280;42891;50.006;21.964;2023-10-08T04:57:47;51034.75;;;-146.02;77.91
57000;BME280;42891;50.006;21.964;2023-10-08T05:01:49;51058.78;;;-146.02;76.13
57000;BME280;42891;50.006;21.964;2023-10-08T05:06:09;51088.84;;;-146.02;77.53
57000;BME280;42891;50.006;21.964;2023-10-08T05:10:16;51054.78;;;-146.02;78.09
57000;BME280;42891;50.006;21.964;2023-10-08T05:14:26;51042.75;;;-146.02;77.82
57000;BME280;42891;50.006;21.964;2023-10-08T05:18:49;51068.81;;;-146.02;77.11
57000;BME280;42891;50.006;21.964;2023-10-08T05:23:11;51050.78;;;-146.02;77.12
57000;BME280;42891;50.006;21.964;2023-10-08T05:27:22;51040.75;;;-146.02;77.44
57000;BME280;42891;50.006;21.964;2023-10-08T05:31:52;51092.84;;;-146.02;78.25
57000;BME280;42891;50.006;21.964;2023-10-08T05:36:12;51040.75;;;-146.02;78.25
57000;BME280;42891;50.006;21.964;2023-10-08T05:40:19;51016.72;;;-146.02;78.71
57000;BME280;42891;50.006;21.964;2023-10-08T05:44:44;51056.78;;;-146.02;78.63
57000;BME280;42891;50.006;21.964;2023-10-08T05:49:11;51068.81;;;-146.02;78.27
57000;BME280;42891;50.006;21.964;2023-10-08T05:53:11;51068.81;;;-146.02;78.91
57000;BME280;42891;50.006;21.964;2023-10-08T05:57:41;51080.84;;;-146.02;78.87
57000;BME280;42891;50.006;21.964;2023-10-08T06:01:46;51038.75;;;-146.02;78.77
57000;BME280;42891;50.006;21.964;2023-10-08T06:05:46;51056.78;;;-146.02;79.33
57000;BME280;42891;50.006;21.964;2023-10-08T06:10:03;51052.78;;;-146.02;79.15
57000;BME280;42891;50.006;21.964;2023-10-08T06:14:13;51016.72;;;-146.02;79.33
57000;BME280;42891;50.006;21.964;2023-10-08T06:18:18;51072.81;;;-146.02;79.57
57000;BME280;42891;50.006;21.964;2023-10-08T06:22:19;51064.81;;;-146.02;79.33
57000;BME280;42891;50.006;21.964;2023-10-08T06:26:23;51054.78;;;-146.02;79.28
57000;BME280;42891;50.006;21.964;2023-10-08T06:30:25;51090.84;;;-146.02;79.77
57000;BME280;42891;50.006;21.964;2023-10-08T06:34:34;51084.84;;;-146.02;79.98
57000;BME280;42891;50.006;21.964;2023-10-08T06:38:34;51050.78;;;-146.02;80.09
57000;BME280;42891;50.006;21.964;2023-10-08T06:42:35;51066.81;;;-146.02;79.50
57000;BME280;42891;50.006;21.964;2023-10-08T06:46:35;51082.84;;;-146.02;80.06
57000;BME280;42891;50.006;21.964;2023-10-08T06:50:36;51066.81;;;-146.02;79.99
57000;BME280;42891;50.006;21.964;2023-10-08T06:54:36;51060.78;;;-146.02;79.45
57000;BME280;42891;50.006;21.964;2023-10-08T06:58:36;51080.84;;;-146.02;78.97
57000;BME280;42891;50.006;21.964;2023-10-08T07:02:37;51086.84;;;-146.02;79.13
57000;BME280;42891;50.006;21.964;2023-10-08T07:06:43;51070.81;;;-146.02;79.05
57000;BME280;42891;50.006;21.964;2023-10-08T07:10:43;51054.78;;;-146.02;78.25
57000;BME280;42891;50.006;21.964;2023-10-08T07:14:45;51060.78;;;-146.02;78.95
57000;BME280;42891;50.006;21.964;2023-10-08T07:18:47;51034.75;;;-146.02;77.83
57000;BME280;42891;50.006;21.964;2023-10-08T07:22:52;51046.78;;;-146.02;78.06
57000;BME280;42891;50.006;21.964;2023-10-08T07:26:54;51068.81;;;-146.02;78.49
57000;BME280;42891;50.006;21.964;2023-10-08T07:30:55;51030.75;;;-146.02;78.79
57000;BME280;42891;50.006;21.964;2023-10-08T07:34:57;51100.88;;;-146.02;78.19
57000;BME280;42891;50.006;21.964;2023-10-08T07:39:15;51022.72;;;-146.02;78.82
57000;BME280;42891;50.006;21.964;2023-10-08T07:43:24;51028.75;;;-146.02;78.37
57000;BME280;42891;50.006;21.964;2023-10-08T07:47:25;51038.75;;;-146.02;77.52
57000;BME280;42891;50.006;21.964;2023-10-08T07:51:28;51060.78;;;-146.02;77.43
57000;BME280;42891;50.006;21.964;2023-10-08T07:55:28;51080.84;;;-146.02;76.40
57000;BME280;42891;50.006;21.964;2023-10-08T07:59:28;51066.81;;;-146.02;76.59
57000;BME280;42891;50.006;21.964;2023-10-08T08:03:29;51026.72;;;-146.02;76.62
57000;BME280;42891;50.006;21.964;2023-10-08T08:07:29;51090.84;;;-146.02;75.61
57000;BME280;42891;50.006;21.964;2023-10-08T08:11:30;51050.78;;;-146.02;74.86
57000;BME280;42891;50.006;21.964;2023-10-08T08:15:30;51060.78;;;-146.02;74.03
57000;BME280;42891;50.006;21.964;2023-10-08T08:19:30;51062.81;;;-146.02;72.35
57000;BME280;42891;50.006;21.964;2023-10-08T08:23:31;51052.78;;;-146.02;73.29
57000;BME280;42891;50.006;21.964;2023-10-08T08:27:31;51044.78;;;-146.02;75.02
57000;BME280;42891;50.006;21.964;2023-10-08T08:31:33;51064.81;;;-146.02;75.00
57000;BME280;42891;50.006;21.964;2023-10-08T08:35:35;51064.81;;;-146.02;74.97
57000;BME280;42891;50.006;21.964;2023-10-08T08:39:35;51040.75;;;-146.02;72.86
57000;BME280;42891;50.006;21.964;2023-10-08T08:43:36;51056.78;;;-146.02;70.59
57000;BME280;42891;50.006;21.964;2023-10-08T08:47:37;51056.78;;;-146.02;70.73
57000;BME280;42891;50.006;21.964;2023-10-08T08:51:38;51036.75;;;-146.02;70.15
57000;BME280;42891;50.006;21.964;2023-10-08T08:55:39;51058.78;;;-146.02;68.97
57000;BME280;42891;50.006;21.964;2023-10-08T08:59:57;51070.81;;;-146.02;69.34
57000;BME280;42891;50.006;21.964;2023-10-08T09:04:02;51024.72;;;-146.02;68.38
57000;BME280;42891;50.006;21.964;2023-10-08T09:08:05;51072.81;;;-146.02;66.49
57000;BME280;42891;50.006;21.964;2023-10-08T09:12:09;51088.84;;;-146.02;65.01
57000;BME280;42891;50.006;21.964;2023-10-08T09:16:15;51068.81;;;-146.02;64.57
57000;BME280;42891;50.006;21.964;2023-10-08T09:20:16;51056.78;;;-146.02;65.10
57000;BME280;42891;50.006;21.964;2023-10-08T09:24:18;51014.72;;;-146.02;62.79
57000;BME280;42891;50.006;21.964;2023-10-08T09:28:19;51064.81;;;-146.02;63.66
57000;BME280;42891;50.006;21.964;2023-10-08T09:32:21;51054.78;;;-146.02;63.78
57000;BME280;42891;50.006;21.964;2023-10-08T09:36:25;51070.81;;;-146.02;63.18
57000;BME280;42891;50.006;21.964;2023-10-08T09:40:31;51032.75;;;-146.02;61.72
57000;BME280;42891;50.006;21.964;2023-10-08T09:44:32;51072.81;;;-146.02;61.71
57000;BME280;42891;50.006;21.964;2023-10-08T09:48:36;51068.81;;;-146.02;60.87
57000;BME280;42891;50.006;21.964;2023-10-08T09:52:42;51060.78;;;-146.02;62.62
57000;BME280;42891;50.006;21.964;2023-10-08T09:56:46;51072.81;;;-146.02;60.64
57000;BME280;42891;50.006;21.964;2023-10-08T10:00:48;51032.75;;;-146.02;57.47
57000;BME280;42891;50.006;21.964;2023-10-08T10:04:50;51018.72;;;-146.02;56.79
57000;BME280;42891;50.006;21.964;2023-10-08T10:08:55;51036.75;;;-146.02;54.60
57000;BME280;42891;50.006;21.964;2023-10-08T10:13:02;51032.75;;;-146.02;53.35
57000;BME280;42891;50.006;21.964;2023-10-08T10:17:19;51050.78;;;-146.02;50.95
57000;BME280;42891;50.006;21.964;2023-10-08T10:25:34;51016.72;;;-146.02;47.78
57000;BME280;42891;50.006;21.964;2023-10-08T10:29:37;51002.69;;;-146.02;46.77
57000;BME280;42891;50.006;21.964;2023-10-08T10:33:37;51004.69;;;-146.02;46.23
57000;BME280;42891;50.006;21.964;2023-10-08T10:37:40;51038.75;;;-146.02;48.28
57000;BME280;42891;50.006;21.964;2023-10-08T10:41:46;51022.72;;;-146.02;47.27
57000;BME280;42891;50.006;21.964;2023-10-08T10:45:47;51020.72;;;-146.02;47.79
57000;BME280;42891;50.006;21.964;2023-10-08T10:49:50;50994.69;;;-146.02;47.94
57000;BME280;42891;50.006;21.964;2023-10-08T10:53:57;51006.69;;;-146.02;48.00
57000;BME280;42891;50.006;21.964;2023-10-08T10:58:07;51022.72;;;-146.02;49.17
57000;BME280;42891;50.006;21.964;2023-10-08T11:02:16;51038.75;;;-146.02;46.47
57000;BME280;42891;50.006;21.964;2023-10-08T11:06:30;51044.78;;;-146.02;43.62
57000;BME280;42891;50.006;21.964;2023-10-08T11:10:38;51020.72;;;-146.02;44.54
57000;BME280;42891;50.006;21.964;2023-10-08T11:14:40;51056.78;;;-146.02;45.28
57000;BME280;42891;50.006;21.964;2023-10-08T11:18:45;51046.78;;;-146.02;44.46
57000;BME280;42891;50.006;21.964;2023-10-08T11:22:50;51020.72;;;-146.02;44.34
57000;BME280;42891;50.006;21.964;2023-10-08T11:26:54;50964.63;;;-146.02;41.23
57000;BME280;42891;50.006;21.964;2023-10-08T11:31:06;50918.53;;;-146.02;38.03
57000;BME280;42891;50.006;21.964;2023-10-08T11:35:15;50940.56;;;-146.02;37.24
57000;BME280;42891;50.006;21.964;2023-10-08T11:39:16;51010.72;;;-146.02;35.33
57000;BME280;42891;50.006;21.964;2023-10-08T11:43:30;50962.63;;;-146.02;36.14
57000;BME280;42891;50.006;21.964;2023-10-08T11:47:33;50962.63;;;-146.02;36.61
57000;BME280;42891;50.006;21.964;2023-10-08T11:51:35;50990.66;;;-146.02;33.02
57000;BME280;42891;50.006;21.964;2023-10-08T11:55:36;50996.69;;;-146.02;33.31
57000;BME280;42891;50.006;21.964;2023-10-08T11:59:38;50976.63;;;-146.02;32.71
57000;BME280;42891;50.006;21.964;2023-10-08T12:03:39;50988.66;;;-146.02;34.29
57000;BME280;42891;50.006;21.964;2023-10-08T12:07:40;50958.59;;;-146.02;35.59
57000;BME280;42891;50.006;21.964;2023-10-08T12:11:40;51000.69;;;-146.02;34.89
57000;BME280;42891;50.006;21.964;2023-10-08T12:15:40;50950.59;;;-146.02;35.24
57000;BME280;42891;50.006;21.964;2023-10-08T12:19:44;51014.72;;;-146.02;35.77
57000;BME280;42891;50.006;21.964;2023-10-08T12:23:45;50982.66;;;-146.02;35.33
57000;BME280;42891;50.006;21.964;2023-10-08T12:27:46;50956.59;;;-146.02;36.35
57000;BME280;42891;50.006;21.964;2023-10-08T12:31:47;50960.59;;;-146.02;33.88
57000;BME280;42891;50.006;21.964;2023-10-08T12:35:47;50932.56;;;-146.02;32.68
57000;BME280;42891;50.006;21.964;2023-10-08T12:39:48;50960.59;;;-146.02;30.99
57000;BME280;42891;50.006;21.964;2023-10-08T12:44:11;50938.56;;;-146.02;29.44
57000;BME280;42891;50.006;21.964;2023-10-08T12:48:12;50926.53;;;-146.02;30.25
57000;BME280;42891;50.006;21.964;2023-10-08T12:52:14;50924.53;;;-146.02;29.93
57000;BME280;42891;50.006;21.964;2023-10-08T12:56:14;50950.59;;;-146.02;29.79
57000;BME280;42891;50.006;21.964;2023-10-08T13:00:15;50932.56;;;-146.02;31.62
57000;BME280;42891;50.006;21.964;2023-10-08T13:04:15;50946.59;;;-146.02;31.77
57000;BME280;42891;50.006;21.964;2023-10-08T13:08:21;50952.59;;;-146.02;29.47
57000;BME280;42891;50.006;21.964;2023-10-08T13:12:22;50932.56;;;-146.02;28.24
57000;BME280;42891;50.006;21.964;2023-10-08T13:16:26;50938.56;;;-146.02;28.64
57000;BME280;42891;50.006;21.964;2023-10-08T13:20:31;50942.56;;;-146.02;29.30
57000;BME280;42891;50.006;21.964;2023-10-08T13:24:34;50950.59;;;-146.02;30.22
57000;BME280;42891;50.006;21.964;2023-10-08T13:28:36;50982.66;;;-146.02;30.80
57000;BME280;42891;50.006;21.964;2023-10-08T13:32:37;50978.66;;;-146.02;31.51
57000;BME280;42891;50.006;21.964;2023-10-08T13:36:37;50920.53;;;-146.02;31.48
57000;BME280;42891;50.006;21.964;2023-10-08T13:40:37;50934.56;;;-146.02;30.16
57000;BME280;42891;50.006;21.964;2023-10-08T13:44:43;50988.66;;;-146.02;31.16
57000;BME280;42891;50.006;21.964;2023-10-08T13:48:46;50974.63;;;-146.02;30.35
57000;BME280;42891;50.006;21.964;2023-10-08T13:52:48;50976.63;;;-146.02;30.65
57000;BME280;42891;50.006;21.964;2023-10-08T13:56:49;50976.63;;;-146.02;30.64
57000;BME280;42891;50.006;21.964;2023-10-08T14:00:49;50978.66;;;-146.02;30.74
57000;BME280;42891;50.006;21.964;2023-10-08T14:04:53;50962.63;;;-146.02;30.12
57000;BME280;42891;50.006;21.964;2023-10-08T14:08:53;50928.56;;;-146.02;30.44
57000;BME280;42891;50.006;21.964;2023-10-08T14:12:55;50848.41;;;-146.02;30.13
57000;BME280;42891;50.006;21.964;2023-10-08T14:16:56;50924.53;;;-146.02;30.19
57000;BME280;42891;50.006;21.964;2023-10-08T14:21:00;50954.59;;;-146.02;31.48
57000;BME280;42891;50.006;21.964;2023-10-08T14:25:01;50926.53;;;-146.02;32.30
57000;BME280;42891;50.006;21.964;2023-10-08T14:29:03;50938.56;;;-146.02;32.78
57000;BME280;42891;50.006;21.964;2023-10-08T14:33:17;50958.59;;;-146.02;32.48
57000;BME280;42891;50.006;21.964;2023-10-08T14:37:24;50972.63;;;-146.02;32.28
57000;BME280;42891;50.006;21.964;2023-10-08T14:41:43;50964.63;;;-146.02;33.28
57000;BME280;42891;50.006;21.964;2023-10-08T14:46:02;50964.63;;;-146.02;33.49
57000;BME280;42891;50.006;21.964;2023-10-08T14:50:09;50984.66;;;-146.02;32.91
57000;BME280;42891;50.006;21.964;2023-10-08T14:54:16;50992.66;;;-146.02;33.08
57000;BME280;42891;50.006;21.964;2023-10-08T14:58:16;51018.72;;;-146.02;32.98
57000;BME280;42891;50.006;21.964;2023-10-08T15:02:18;51004.69;;;-146.02;33.60
57000;BME280;42891;50.006;21.964;2023-10-08T15:06:19;50936.56;;;-146.02;33.68
57000;BME280;42891;50.006;21.964;2023-10-08T15:10:20;50964.63;;;-146.02;34.30
57000;BME280;42891;50.006;21.964;2023-10-08T15:14:23;51006.69;;;-146.02;34.02
57000;BME280;42891;50.006;21.964;2023-10-08T15:18:24;50998.69;;;-146.02;33.42
57000;BME280;42891;50.006;21.964;2023-10-08T15:22:31;51008.69;;;-146.02;34.30
57000;BME280;42891;50.006;21.964;2023-10-08T15:26:32;50992.66;;;-146.02;34.36
57000;BME280;42891;50.006;21.964;2023-10-08T15:30:33;50964.63;;;-146.02;34.45
57000;BME280;42891;50.006;21.964;2023-10-08T15:34:33;50976.63;;;-146.02;34.28
57000;BME280;42891;50.006;21.964;2023-10-08T15:38:34;51004.69;;;-146.02;34.60
57000;BME280;42891;50.006;21.964;2023-10-08T15:42:35;50980.66;;;-146.02;34.85
57000;BME280;42891;50.006;21.964;2023-10-08T15:46:35;50974.63;;;-146.02;34.86
57000;BME280;42891;50.006;21.964;2023-10-08T15:50:36;50996.69;;;-146.02;34.70
57000;BME280;42891;50.006;21.964;2023-10-08T15:54:36;51036.75;;;-146.02;35.59
57000;BME280;42891;50.006;21.964;2023-10-08T15:58:38;50992.66;;;-146.02;35.93
57000;BME280;42891;50.006;21.964;2023-10-08T16:02:38;50972.63;;;-146.02;35.77
57000;BME280;42891;50.006;21.964;2023-10-08T16:06:39;50942.56;;;-146.02;35.63
57000;BME280;42891;50.006;21.964;2023-10-08T16:10:39;50986.66;;;-146.02;35.53
57000;BME280;42891;50.006;21.964;2023-10-08T16:14:39;50982.66;;;-146.02;36.82
57000;BME280;42891;50.006;21.964;2023-10-08T16:18:41;51006.69;;;-146.02;36.51
57000;BME280;42891;50.006;21.964;2023-10-08T16:22:45;51006.69;;;-146.02;36.86
57000;BME280;42891;50.006;21.964;2023-10-08T16:26:47;50968.63;;;-146.02;36.96
57000;BME280;42891;50.006;21.964;2023-10-08T16:30:47;50992.66;;;-146.02;37.35
57000;BME280;42891;50.006;21.964;2023-10-08T16:34:53;50986.66;;;-146.02;37.49
57000;BME280;42891;50.006;21.964;2023-10-08T16:38:54;50992.66;;;-146.02;37.97
57000;BME280;42891;50.006;21.964;2023-10-08T16:42:54;51004.69;;;-146.02;38.37
57000;BME280;42891;50.006;21.964;2023-10-08T16:46:54;50976.63;;;-146.02;37.58
57000;BME280;42891;50.006;21.964;2023-10-08T16:50:55;51002.69;;;-146.02;37.56
57000;BME280;42891;50.006;21.964;2023-10-08T16:54:55;51016.72;;;-146.02;38.32
57000;BME280;42891;50.006;21.964;2023-10-08T16:58:56;51002.69;;;-146.02;38.31
57000;BME280;42891;50.006;21.964;2023-10-08T17:02:56;51014.72;;;-146.02;37.92
57000;BME280;42891;50.006;21.964;2023-10-08T17:06:57;51022.72;;;-146.02;38.24
57000;BME280;42891;50.006;21.964;2023-10-08T17:10:58;51000.69;;;-146.02;38.09
57000;BME280;42891;50.006;21.964;2023-10-08T17:14:58;50970.63;;;-146.02;39.10
57000;BME280;42891;50.006;21.964;2023-10-08T17:18:59;50978.66;;;-146.02;39.08
57000;BME280;42891;50.006;21.964;2023-10-08T17:23:00;50990.66;;;-146.02;38.77
57000;BME280;42891;50.006;21.964;2023-10-08T17:27:00;50958.59;;;-146.02;39.39
57000;BME280;42891;50.006;21.964;2023-10-08T17:31:02;51036.75;;;-146.02;38.99
57000;BME280;42891;50.006;21.964;2023-10-08T17:35:05;50988.66;;;-146.02;39.06
57000;BME280;42891;50.006;21.964;2023-10-08T17:39:09;51002.69;;;-146.02;39.69
57000;BME280;42891;50.006;21.964;2023-10-08T17:43:16;50978.66;;;-146.02;39.42
57000;BME280;42891;50.006;21.964;2023-10-08T17:47:16;50964.63;;;-146.02;39.50
57000;BME280;42891;50.006;21.964;2023-10-08T17:51:17;50998.69;;;-146.02;39.71
57000;BME280;42891;50.006;21.964;2023-10-08T17:55:17;51034.75;;;-146.02;40.43
57000;BME280;42891;50.006;21.964;2023-10-08T17:59:20;50982.66;;;-146.02;39.76
57000;BME280;42891;50.006;21.964;2023-10-08T18:03:23;50986.66;;;-146.02;40.46
57000;BME280;42891;50.006;21.964;2023-10-08T18:07:23;51004.69;;;-146.02;40.15
57000;BME280;42891;50.006;21.964;2023-10-08T18:11:23;50988.66;;;-146.02;39.92
57000;BME280;42891;50.006;21.964;2023-10-08T18:15:26;50984.66;;;-146.02;39.96
57000;BME280;42891;50.006;21.964;2023-10-08T18:19:28;51030.75;;;-146.02;40.22
57000;BME280;42891;50.006;21.964;2023-10-08T18:23:28;51016.72;;;-146.02;40.42
57000;BME280;42891;50.006;21.964;2023-10-08T18:27:29;51018.72;;;-146.02;40.55
57000;BME280;42891;50.006;21.964;2023-10-08T18:31:29;50990.66;;;-146.02;40.30
57000;BME280;42891;50.006;21.964;2023-10-08T18:35:31;50984.66;;;-146.02;40.78
57000;BME280;42891;50.006;21.964;2023-10-08T18:39:31;51006.69;;;-146.02;41.47
57000;BME280;42891;50.006;21.964;2023-10-08T18:43:35;51002.69;;;-146.02;40.98
57000;BME280;42891;50.006;21.964;2023-10-08T18:47:35;51020.72;;;-146.02;41.26
57000;BME280;42891;50.006;21.964;2023-10-08T18:51:37;50978.66;;;-146.02;41.65
57000;BME280;42891;50.006;21.964;2023-10-08T18:55:42;51016.72;;;-146.02;41.96
57000;BME280;42891;50.006;21.964;2023-10-08T18:59:43;50998.69;;;-146.02;42.17
57000;BME280;42891;50.006;21.964;2023-10-08T19:03:44;51020.72;;;-146.02;42.84
57000;BME280;42891;50.006;21.964;2023-10-08T19:07:44;50964.63;;;-146.02;43.13
57000;BME280;42891;50.006;21.964;2023-10-08T19:11:45;50984.66;;;-146.02;43.38
57000;BME280;42891;50.006;21.964;2023-10-08T19:15:45;51014.72;;;-146.02;43.63
57000;BME280;42891;50.006;21.964;2023-10-08T19:19:45;50976.63;;;-146.02;43.95
57000;BME280;42891;50.006;21.964;2023-10-08T19:23:46;50982.66;;;-146.02;44.25
57000;BME280;42891;50.006;21.964;2023-10-08T19:27:46;51050.78;;;-146.02;44.61
57000;BME280;42891;50.006;21.964;2023-10-08T19:31:47;50994.69;;;-146.02;44.72
57000;BME280;42891;50.006;21.964;2023-10-08T19:35:54;50986.66;;;-146.02;45.05
57000;BME280;42891;50.006;21.964;2023-10-08T19:39:55;50994.69;;;-146.02;45.27
57000;BME280;42891;50.006;21.964;2023-10-08T19:43:56;51034.75;;;-146.02;45.68
57000;BME280;42891;50.006;21.964;2023-10-08T19:47:57;51034.75;;;-146.02;46.26
57000;BME280;42891;50.006;21.964;2023-10-08T19:51:57;50992.66;;;-146.02;46.31
57000;BME280;42891;50.006;21.964;2023-10-08T19:55:59;50988.66;;;-146.02;45.57
57000;BME280;42891;50.006;21.964;2023-10-08T20:00:00;51008.69;;;-146.02;45.99
57000;BME280;42891;50.006;21.964;2023-10-08T20:04:00;51010.72;;;-146.02;46.33
57000;BME280;42891;50.006;21.964;2023-10-08T20:08:01;50988.66;;;-146.02;46.28
57000;BME280;42891;50.006;21.964;2023-10-08T20:12:01;51008.69;;;-146.02;46.54
57000;BME280;42891;50.006;21.964;2023-10-08T20:16:04;50986.66;;;-146.02;46.82
57000;BME280;42891;50.006;21.964;2023-10-08T20:20:08;50998.69;;;-146.02;47.22
57000;BME280;42891;50.006;21.964;2023-10-08T20:24:12;50990.66;;;-146.02;47.34
57000;BME280;42891;50.006;21.964;2023-10-08T20:28:12;51028.75;;;-146.02;48.22
57000;BME280;42891;50.006;21.964;2023-10-08T20:32:15;50984.66;;;-146.02;48.61
57000;BME280;42891;50.006;21.964;2023-10-08T20:36:18;50976.63;;;-146.02;48.76
57000;BME280;42891;50.006;21.964;2023-10-08T20:40:18;50990.66;;;-146.02;49.02
57000;BME280;42891;50.006;21.964;2023-10-08T20:44:40;50992.66;;;-146.02;49.64